createdAt,value
2018-09-17T00:00:46.554Z,99.99
2018-09-17T00:01:56.435Z,99.99
2018-09-17T00:03:06.570Z,99.99
2018-09-17T00:04:15.873Z,99.99
2018-09-17T00:05:26.049Z,99.99
2018-09-17T00:06:35.908Z,99.99
2018-09-17T00:07:45.488Z,99.99
2018-09-17T00:08:55.623Z,99.99
2018-09-17T00:10:04.925Z,99.99
2018-09-17T00:11:15.054Z,99.99
2018-09-17T00:12:24.919Z,99.99
2018-09-17T00:13:34.224Z,99.99
2018-09-17T00:14:44.362Z,99.99
2018-09-17T00:15:54.212Z,99.99
2018-09-17T00:17:03.840Z,99.99
2018-09-17T00:18:13.968Z,99.99
2018-09-17T00:19:24.093Z,99.99
2018-09-17T00:20:33.945Z,99.99
2018-09-17T00:21:44.069Z,99.99
2018-09-17T00:22:54.314Z,99.99
2018-09-17T00:24:03.896Z,99.99
2018-09-17T00:25:13.750Z,99.99
2018-09-17T00:26:23.897Z,99.99
2018-09-17T00:27:34.028Z,99.99
2018-09-17T00:28:44.205Z,99.99
2018-09-17T00:29:54.058Z,99.99
2018-09-17T00:31:04.184Z,99.99
2018-09-17T00:32:14.319Z,99.99
2018-09-17T00:33:24.172Z,99.99
2018-09-17T00:34:34.021Z,99.99
2018-09-17T00:35:44.147Z,99.99
2018-09-17T00:36:54.004Z,99.99
2018-09-17T00:38:03.586Z,99.99
2018-09-17T00:39:13.435Z,99.99
2018-09-17T00:40:23.563Z,99.99
2018-09-17T00:41:33.419Z,99.99
2018-09-17T00:42:43.545Z,99.99
2018-09-17T00:43:53.730Z,99.99
2018-09-17T00:45:03.590Z,99.99
2018-09-17T00:46:13.172Z,99.99
2018-09-17T00:47:23.297Z,99.99
2018-09-17T00:48:33.147Z,99.99
2018-09-17T00:49:43.276Z,99.99
2018-09-17T00:50:53.405Z,99.99
2018-09-17T00:52:03.534Z,99.99
2018-09-17T00:53:13.387Z,99.99
2018-09-17T00:54:22.967Z,99.99
2018-09-17T00:55:32.547Z,99.99
2018-09-17T00:56:42.678Z,99.99
2018-09-17T00:57:52.789Z,99.99
2018-09-17T00:59:03.553Z,99.99
2018-09-17T01:00:13.693Z,99.99
2018-09-17T01:01:23.825Z,99.99
2018-09-17T01:02:33.406Z,99.99
2018-09-17T01:03:43.586Z,99.99
2018-09-17T01:04:53.480Z,99.99
2018-09-17T01:06:03.665Z,99.99
2018-09-17T01:07:12.968Z,99.99
2018-09-17T01:08:23.101Z,99.99
2018-09-17T01:09:32.679Z,99.99
2018-09-17T01:10:42.811Z,99.99
2018-09-17T01:11:52.682Z,99.99
2018-09-17T01:13:02.809Z,99.99
2018-09-17T01:14:12.670Z,99.99
2018-09-17T01:15:22.804Z,99.99
2018-09-17T01:16:32.947Z,99.99
2018-09-17T01:17:42.802Z,99.99
2018-09-17T01:18:52.660Z,99.99
2018-09-17T01:20:02.784Z,99.99
2018-09-17T01:21:12.688Z,99.99
2018-09-17T01:22:22.266Z,99.99
2018-09-17T01:23:32.394Z,99.99
2018-09-17T01:24:42.525Z,99.99
2018-09-17T01:25:52.389Z,99.99
2018-09-17T01:27:01.963Z,99.99
2018-09-17T01:28:12.096Z,99.99
2018-09-17T01:29:21.949Z,99.99
2018-09-17T01:30:31.610Z,99.99
2018-09-17T01:31:41.909Z,99.99
2018-09-17T01:32:51.835Z,99.99
2018-09-17T01:34:01.968Z,99.99
2018-09-17T01:35:12.106Z,99.99
2018-09-17T01:36:21.966Z,99.99
2018-09-17T01:37:32.103Z,99.99
2018-09-17T01:38:41.746Z,99.99
2018-09-17T01:39:51.881Z,99.99
2018-09-17T01:41:01.733Z,99.99
2018-09-17T01:42:11.590Z,99.99
2018-09-17T01:43:21.725Z,99.99
2018-09-17T01:44:31.577Z,99.99
2018-09-17T01:45:41.705Z,99.99
2018-09-17T01:46:51.834Z,99.99
2018-09-17T01:48:02.022Z,99.99
2018-09-17T01:49:11.877Z,99.99
2018-09-17T01:50:22.002Z,99.99
2018-09-17T01:51:31.586Z,99.99
2018-09-17T01:52:41.720Z,99.99
2018-09-17T01:53:51.847Z,99.99
2018-09-17T01:55:01.976Z,99.99
2018-09-17T01:56:11.557Z,99.99
2018-09-17T01:57:21.422Z,99.99
2018-09-17T01:58:31.274Z,99.99
2018-09-17T01:59:41.400Z,99.99
2018-09-17T02:00:51.535Z,99.99
2018-09-17T02:02:01.436Z,99.99
2018-09-17T02:03:10.741Z,99.99
2018-09-17T02:04:20.892Z,99.99
2018-09-17T02:05:30.742Z,99.99
2018-09-17T02:06:40.869Z,99.99
2018-09-17T02:07:50.995Z,99.99
2018-09-17T02:09:00.952Z,99.99
2018-09-17T02:10:11.281Z,99.99
2018-09-17T02:11:21.138Z,99.99
2018-09-17T02:12:30.992Z,99.99
2018-09-17T02:13:41.116Z,99.99
2018-09-17T02:14:51.248Z,99.99
2018-09-17T02:16:01.382Z,99.99
2018-09-17T02:17:10.971Z,99.99
2018-09-17T02:18:21.106Z,99.99
2018-09-17T02:19:30.736Z,99.99
2018-09-17T02:20:40.876Z,99.99
2018-09-17T02:21:51.008Z,99.99
2018-09-17T02:23:00.862Z,99.99
2018-09-17T02:24:10.995Z,99.99
2018-09-17T02:25:20.857Z,99.99
2018-09-17T02:26:30.990Z,99.99
2018-09-17T02:27:41.124Z,99.99
2018-09-17T02:28:50.710Z,99.99
2018-09-17T02:30:00.564Z,99.99
2018-09-17T02:31:10.198Z,99.99
2018-09-17T02:32:20.347Z,99.99
2018-09-17T02:33:30.209Z,99.99
2018-09-17T02:34:40.340Z,99.99
2018-09-17T02:35:49.648Z,99.99
2018-09-17T02:36:59.832Z,99.99
2018-09-17T02:38:09.687Z,99.99
2018-09-17T02:39:19.614Z,99.99
2018-09-17T02:40:29.471Z,99.99
2018-09-17T02:41:39.606Z,99.99
2018-09-17T02:42:49.743Z,99.99
2018-09-17T02:43:59.883Z,99.99
2018-09-17T02:45:09.801Z,99.99
2018-09-17T02:46:19.654Z,99.99
2018-09-17T02:47:29.234Z,99.99
2018-09-17T02:48:39.394Z,99.99
2018-09-17T02:49:48.969Z,99.99
2018-09-17T02:50:58.824Z,99.99
2018-09-17T02:52:09.029Z,99.99
2018-09-17T02:53:18.614Z,99.99
2018-09-17T02:54:28.953Z,99.99
2018-09-17T02:55:38.822Z,99.99
2018-09-17T02:56:48.671Z,99.99
2018-09-17T02:57:58.527Z,99.99
2018-09-17T02:59:08.380Z,99.99
2018-09-17T03:00:18.302Z,99.99
2018-09-17T03:01:28.443Z,99.99
2018-09-17T03:02:38.577Z,99.99
2018-09-17T03:03:48.432Z,99.99
2018-09-17T03:04:58.560Z,99.99
2018-09-17T03:06:08.695Z,99.99
2018-09-17T03:07:18.819Z,99.99
2018-09-17T03:08:28.946Z,99.99
2018-09-17T03:09:38.833Z,99.99
2018-09-17T03:10:48.691Z,99.99
2018-09-17T03:11:58.820Z,99.99
2018-09-17T03:13:08.401Z,99.99
2018-09-17T03:14:18.530Z,99.99
2018-09-17T03:15:28.406Z,99.99
2018-09-17T03:16:38.274Z,99.99
2018-09-17T03:17:48.178Z,99.99
2018-09-17T03:18:58.305Z,99.99
2018-09-17T03:20:07.880Z,99.99
2018-09-17T03:21:17.744Z,99.99
2018-09-17T03:22:27.881Z,99.99
2018-09-17T03:23:37.519Z,99.99
2018-09-17T03:24:47.657Z,99.99
2018-09-17T03:25:56.693Z,99.99
2018-09-17T03:27:06.546Z,99.99
2018-09-17T03:28:16.678Z,99.99
2018-09-17T03:29:26.581Z,99.99
2018-09-17T03:30:36.160Z,99.99
2018-09-17T03:31:46.339Z,99.99
2018-09-17T03:32:56.204Z,99.99
2018-09-17T03:34:06.340Z,99.99
2018-09-17T03:35:16.253Z,99.99
2018-09-17T03:36:26.391Z,99.99
2018-09-17T03:37:36.532Z,99.99
2018-09-17T03:38:46.682Z,99.99
2018-09-17T03:39:56.829Z,99.99
2018-09-17T03:41:06.425Z,99.99
2018-09-17T03:42:15.996Z,99.99
2018-09-17T03:43:25.307Z,99.99
2018-09-17T03:44:34.890Z,99.99
2018-09-17T03:45:44.746Z,99.99
2018-09-17T03:46:54.792Z,99.99
2018-09-17T03:48:04.931Z,99.99
2018-09-17T03:49:14.512Z,99.99
2018-09-17T03:50:24.698Z,99.13
2018-09-17T03:51:34.554Z,98.27
2018-09-17T03:52:44.410Z,98.08
2018-09-17T03:53:54.264Z,98.94
2018-09-17T03:55:04.114Z,99.32
2018-09-17T03:56:13.969Z,99.13
2018-09-17T03:57:24.101Z,98.94
2018-09-17T03:58:34.285Z,99.99
2018-09-17T03:59:44.145Z,98.03
2018-09-17T04:00:54.006Z,97.84
2018-09-17T04:02:04.137Z,98.6
2018-09-17T04:03:13.995Z,97.65
2018-09-17T04:04:23.681Z,96.51
2018-09-17T04:05:33.534Z,95.56
2018-09-17T04:06:43.407Z,96.22
2018-09-17T04:07:53.542Z,94.79
2018-09-17T04:09:03.668Z,94.98
2018-09-17T04:10:13.920Z,94.98
2018-09-17T04:11:23.775Z,94.6
2018-09-17T04:12:33.902Z,95.08
2018-09-17T04:13:43.764Z,94.7
2018-09-17T04:14:53.621Z,94.79
2018-09-17T04:16:03.479Z,93.93
2018-09-17T04:17:13.612Z,93.93
2018-09-17T04:18:23.476Z,94.32
2018-09-17T04:19:33.603Z,93.93
2018-09-17T04:20:43.731Z,93.37
2018-09-17T04:21:53.312Z,94.03
2018-09-17T04:23:03.177Z,93.55
2018-09-17T04:24:13.308Z,92.22
2018-09-17T04:25:22.889Z,91.74
2018-09-17T04:26:33.028Z,92.03
2018-09-17T04:27:42.892Z,92.03
2018-09-17T04:28:52.750Z,91.94
2018-09-17T04:30:02.616Z,91.46
2018-09-17T04:31:12.199Z,91.27
2018-09-17T04:32:22.323Z,91.74
2018-09-17T04:33:32.232Z,91.36
2018-09-17T04:34:42.097Z,91.27
2018-09-17T04:35:51.952Z,90.22
2018-09-17T04:37:02.083Z,90.6
2018-09-17T04:38:11.113Z,90.41
2018-09-17T04:39:21.291Z,89.84
2018-09-17T04:40:30.874Z,89.36
2018-09-17T04:41:41.046Z,89.07
2018-09-17T04:42:50.902Z,88.7
2018-09-17T04:44:01.034Z,89.46
2018-09-17T04:45:10.944Z,88.6
2018-09-17T04:46:21.077Z,88.6
2018-09-17T04:47:30.937Z,88.41
2018-09-17T04:48:41.073Z,88.51
2018-09-17T04:49:50.940Z,88.41
2018-09-17T04:51:00.581Z,88.22
2018-09-17T04:52:10.713Z,88.41
2018-09-17T04:53:20.563Z,88.89
2018-09-17T04:54:30.417Z,88.6
2018-09-17T04:55:40.274Z,89.41
2018-09-17T04:56:50.451Z,89.03
2018-09-17T04:58:00.580Z,89.26
2018-09-17T04:59:10.159Z,89.41
2018-09-17T05:00:20.300Z,89.41
2018-09-17T05:01:30.429Z,89.32
2018-09-17T05:02:40.610Z,89.41
2018-09-17T05:03:50.738Z,89.41
2018-09-17T05:05:00.591Z,89.22
2018-09-17T05:06:10.715Z,88.75
2018-09-17T05:07:21.086Z,89.51
2018-09-17T05:08:31.431Z,89.51
2018-09-17T05:09:41.284Z,89.32
2018-09-17T05:10:51.413Z,89.61
2018-09-17T05:12:01.550Z,89.32
2018-09-17T05:13:11.847Z,89.41
2018-09-17T05:14:22.795Z,89.98
2018-09-17T05:15:32.928Z,89.61
2018-09-17T05:16:42.792Z,89.13
2018-09-17T05:17:52.925Z,89.22
2018-09-17T05:19:03.055Z,89.32
2018-09-17T05:20:12.959Z,88.75
2018-09-17T05:21:22.531Z,89.32
2018-09-17T05:22:32.109Z,88.56
2018-09-17T05:23:41.696Z,89.41
2018-09-17T05:24:51.550Z,88.56
2018-09-17T05:26:01.181Z,88.84
2018-09-17T05:27:11.312Z,88.65
2018-09-17T05:28:21.487Z,89.13
2018-09-17T05:29:31.380Z,88.65
2018-09-17T05:30:41.236Z,88.27
2018-09-17T05:31:51.420Z,87.98
2018-09-17T05:33:01.547Z,87.23
2018-09-17T05:34:11.396Z,86.65
2018-09-17T05:35:21.522Z,86.75
2018-09-17T05:36:31.384Z,86.36
2018-09-17T05:37:41.569Z,86.75
2018-09-17T05:38:51.700Z,86.18
2018-09-17T05:40:01.821Z,86.65
2018-09-17T05:41:11.675Z,85.99
2018-09-17T05:42:21.530Z,85.99
2018-09-17T05:43:31.658Z,85.41
2018-09-17T05:44:41.793Z,85.32
2018-09-17T05:45:51.919Z,84.65
2018-09-17T05:47:02.041Z,84.75
2018-09-17T05:48:11.907Z,84.65
2018-09-17T05:49:21.757Z,84.56
2018-09-17T05:50:31.331Z,84.46
2018-09-17T05:51:41.458Z,84.65
2018-09-17T05:52:51.320Z,83.98
2018-09-17T05:54:01.462Z,84.46
2018-09-17T05:55:11.322Z,84.08
2018-09-17T05:56:21.169Z,84.08
2018-09-17T05:57:31.026Z,83.51
2018-09-17T05:58:41.151Z,83.89
2018-09-17T05:59:51.008Z,83.61
2018-09-17T06:01:00.640Z,83.13
2018-09-17T06:02:10.498Z,82.56
2018-09-17T06:03:20.622Z,82.18
2018-09-17T06:04:30.481Z,83.41
2018-09-17T06:05:40.846Z,82.93
2018-09-17T06:06:51.249Z,83.32
2018-09-17T06:08:01.674Z,83.22
2018-09-17T06:09:11.527Z,81.98
2018-09-17T06:10:21.381Z,81.6
2018-09-17T06:11:31.516Z,81.6
2018-09-17T06:12:41.764Z,81.23
2018-09-17T06:13:51.612Z,80.75
2018-09-17T06:15:01.468Z,81.32
2018-09-17T06:16:11.054Z,81.41
2018-09-17T06:17:20.975Z,80.75
2018-09-17T06:18:31.459Z,81.03
2018-09-17T06:19:41.589Z,80.94
2018-09-17T06:20:51.722Z,81.13
2018-09-17T06:22:01.296Z,81.13
2018-09-17T06:23:11.550Z,80.46
2018-09-17T06:24:21.694Z,80.46
2018-09-17T06:25:30.994Z,79.32
2018-09-17T06:26:41.108Z,79.51
2018-09-17T06:27:51.301Z,79.03
2018-09-17T06:29:01.472Z,78.98
2018-09-17T06:30:11.382Z,78.94
2018-09-17T06:31:21.511Z,78.41
2018-09-17T06:32:31.634Z,79.55
2018-09-17T06:33:41.485Z,79.6
2018-09-17T06:34:51.331Z,78.22
2018-09-17T06:36:00.822Z,78.94
2018-09-17T06:37:11.093Z,79.36
2018-09-17T06:38:20.668Z,79.36
2018-09-17T06:39:30.526Z,78.41
2018-09-17T06:40:40.381Z,79.46
2018-09-17T06:41:50.554Z,78.69
2018-09-17T06:43:00.445Z,78.22
2018-09-17T06:44:10.325Z,78.59
2018-09-17T06:45:19.907Z,78.31
2018-09-17T06:46:29.491Z,77.74
2018-09-17T06:47:39.389Z,77.45
2018-09-17T06:48:48.977Z,78.03
2018-09-17T06:49:59.104Z,76.69
2018-09-17T06:51:08.675Z,76.79
2018-09-17T06:52:18.251Z,77.26
2018-09-17T06:53:28.424Z,76.21
2018-09-17T06:54:38.682Z,76.31
2018-09-17T06:55:48.538Z,75.55
2018-09-17T06:56:58.663Z,75.55
2018-09-17T06:58:08.514Z,75.45
2018-09-17T06:59:18.140Z,74.88
2018-09-17T07:00:27.720Z,75.16
2018-09-17T07:01:37.848Z,75.16
2018-09-17T07:02:47.422Z,75.55
2018-09-17T07:03:57.273Z,75.64
2018-09-17T07:05:07.179Z,74.21
2018-09-17T07:06:17.494Z,74.4
2018-09-17T07:07:27.684Z,74.98
2018-09-17T07:08:37.809Z,73.93
2018-09-17T07:09:47.932Z,73.17
2018-09-17T07:10:58.101Z,73.17
2018-09-17T07:12:08.225Z,73.36
2018-09-17T07:13:18.080Z,72.97
2018-09-17T07:14:27.656Z,73.74
2018-09-17T07:15:37.504Z,73.83
2018-09-17T07:16:47.714Z,73.26
2018-09-17T07:17:57.655Z,73.17
2018-09-17T07:19:06.968Z,73.45
2018-09-17T07:20:16.816Z,73.55
2018-09-17T07:21:26.942Z,73.74
2018-09-17T07:22:36.566Z,74.12
2018-09-17T07:23:46.726Z,74.21
2018-09-17T07:24:56.576Z,74.4
2018-09-17T07:26:06.432Z,75.07
2018-09-17T07:27:16.282Z,75.93
2018-09-17T07:28:26.186Z,75.84
2018-09-17T07:29:35.759Z,75.36
2018-09-17T07:30:45.611Z,75.36
2018-09-17T07:31:55.730Z,75.26
2018-09-17T07:33:05.855Z,75.78
2018-09-17T07:34:15.483Z,74.82
2018-09-17T07:35:25.618Z,74.88
2018-09-17T07:36:35.721Z,75.3
2018-09-17T07:37:46.083Z,76.16
2018-09-17T07:38:55.947Z,75.3
2018-09-17T07:40:05.901Z,75.11
2018-09-17T07:41:15.754Z,75.11
2018-09-17T07:42:25.596Z,73.21
2018-09-17T07:43:35.464Z,73.49
2018-09-17T07:44:45.603Z,73.96
2018-09-17T07:45:55.781Z,73.68
2018-09-17T07:47:05.910Z,73.21
2018-09-17T07:48:16.033Z,73.49
2018-09-17T07:49:25.884Z,74.06
2018-09-17T07:50:36.008Z,74.54
2018-09-17T07:51:46.186Z,73.77
2018-09-17T07:52:55.844Z,74.35
2018-09-17T07:54:06.105Z,72.34
2018-09-17T07:55:15.963Z,74.35
2018-09-17T07:56:25.810Z,73.49
2018-09-17T07:57:35.159Z,72.34
2018-09-17T07:58:45.028Z,73.77
2018-09-17T07:59:55.291Z,73.96
2018-09-17T08:01:05.418Z,73.58
2018-09-17T08:02:14.999Z,73.39
2018-09-17T08:03:25.224Z,72.72
2018-09-17T08:04:35.083Z,73.01
2018-09-17T08:05:45.464Z,73.39
2018-09-17T08:06:55.556Z,71.77
2018-09-17T08:08:05.705Z,71.77
2018-09-17T08:09:16.195Z,71.3
2018-09-17T08:10:25.774Z,71.77
2018-09-17T08:11:35.899Z,71.77
2018-09-17T08:12:46.023Z,72.25
2018-09-17T08:13:56.150Z,71.58
2018-09-17T08:15:06.323Z,73.05
2018-09-17T08:16:16.174Z,73.11
2018-09-17T08:17:26.026Z,73.52
2018-09-17T08:18:35.602Z,74.38
2018-09-17T08:19:45.610Z,73.24
2018-09-17T08:20:55.924Z,73.24
2018-09-17T08:22:06.056Z,74.48
2018-09-17T08:23:15.911Z,73.14
2018-09-17T08:24:25.840Z,73.52
2018-09-17T08:25:36.366Z,72.86
2018-09-17T08:26:46.372Z,73.81
2018-09-17T08:27:56.227Z,74.67
2018-09-17T08:29:05.811Z,74.38
2018-09-17T08:30:15.952Z,74.48
2018-09-17T08:31:25.414Z,74.01
2018-09-17T08:32:35.333Z,74.48
2018-09-17T08:33:44.908Z,73.33
2018-09-17T08:34:55.043Z,74.01
2018-09-17T08:36:04.910Z,71.04
2018-09-17T08:37:14.794Z,70.95
2018-09-17T08:38:24.371Z,72.19
2018-09-17T08:39:34.241Z,71.72
2018-09-17T08:40:44.093Z,71.37
2018-09-17T08:41:54.221Z,70.86
2018-09-17T08:43:04.081Z,71.14
2018-09-17T08:44:13.932Z,70.7
2018-09-17T08:45:23.539Z,70.32
2018-09-17T08:46:33.690Z,71.23
2018-09-17T08:47:43.575Z,71.37
2018-09-17T08:48:53.431Z,70.98
2018-09-17T08:50:03.059Z,71.66
2018-09-17T08:51:12.946Z,70.89
2018-09-17T08:52:23.209Z,70.79
2018-09-17T08:53:33.063Z,70.32
2018-09-17T08:54:43.187Z,72.13
2018-09-17T08:55:53.356Z,72.51
2018-09-17T08:57:03.208Z,72.89
2018-09-17T08:58:12.830Z,74.23
2018-09-17T08:59:23.312Z,74.23
2018-09-17T09:00:33.163Z,74.61
2018-09-17T09:01:43.120Z,75.47
2018-09-17T09:02:53.013Z,75.28
2018-09-17T09:04:03.009Z,76.23
2018-09-17T09:05:13.085Z,76.52
2018-09-17T09:06:22.992Z,76.71
2018-09-17T09:07:33.183Z,77.28
2018-09-17T09:08:43.338Z,77.47
2018-09-17T09:09:53.191Z,77.47
2018-09-17T09:11:03.346Z,77.25
2018-09-17T09:12:13.216Z,78.67
2018-09-17T09:13:23.070Z,77.44
2018-09-17T09:14:32.927Z,77.34
2018-09-17T09:15:43.055Z,77.86
2018-09-17T09:16:52.911Z,77.57
2018-09-17T09:18:02.487Z,78.2
2018-09-17T09:19:12.062Z,77.72
2018-09-17T09:20:21.644Z,77.62
2018-09-17T09:21:30.958Z,77.34
2018-09-17T09:22:41.085Z,77.06
2018-09-17T09:23:50.667Z,76.67
2018-09-17T09:25:00.528Z,77.62
2018-09-17T09:26:10.760Z,77.06
2018-09-17T09:27:20.852Z,77.15
2018-09-17T09:28:30.978Z,76.77
2018-09-17T09:29:41.107Z,77.25
2018-09-17T09:30:51.061Z,77.44
2018-09-17T09:32:00.530Z,76.2
2018-09-17T09:33:10.663Z,76.57
2018-09-17T09:34:20.244Z,76.57
2018-09-17T09:35:29.828Z,76.29
2018-09-17T09:36:39.407Z,75.91
2018-09-17T09:37:49.026Z,77.06
2018-09-17T09:38:59.164Z,76.14
2018-09-17T09:40:09.027Z,76.04
2018-09-17T09:41:19.160Z,76.81
2018-09-17T09:42:28.945Z,76.62
2018-09-17T09:43:39.076Z,77.28
2018-09-17T09:44:49.209Z,76.23
2018-09-17T09:45:59.342Z,76.23
2018-09-17T09:47:09.198Z,74.04
2018-09-17T09:48:19.060Z,75.66
2018-09-17T09:49:28.918Z,75.47
2018-09-17T09:50:39.050Z,75.47
2018-09-17T09:51:48.932Z,75.47
2018-09-17T09:52:59.068Z,75.66
2018-09-17T09:54:08.929Z,75.47
2018-09-17T09:55:19.059Z,75.47
2018-09-17T09:56:29.195Z,74.8
2018-09-17T09:57:39.335Z,74.23
2018-09-17T09:58:49.471Z,74.52
2018-09-17T09:59:59.059Z,74.23
2018-09-17T10:01:08.933Z,74.04
2018-09-17T10:02:19.072Z,74.13
2018-09-17T10:03:29.212Z,74.42
2018-09-17T10:04:39.344Z,74.42
2018-09-17T10:05:48.656Z,73.47
2018-09-17T10:06:58.789Z,72.99
2018-09-17T10:08:08.101Z,72.51
2018-09-17T10:09:17.958Z,73.28
2018-09-17T10:10:27.265Z,73.28
2018-09-17T10:11:37.597Z,73.66
2018-09-17T10:12:48.055Z,74.99
2018-09-17T10:13:58.190Z,75.09
2018-09-17T10:15:08.321Z,74.9
2018-09-17T10:16:18.186Z,74.32
2018-09-17T10:17:28.317Z,75.28
2018-09-17T10:18:38.176Z,74.32
2018-09-17T10:19:48.316Z,74.52
2018-09-17T10:20:58.174Z,75.18
2018-09-17T10:22:08.314Z,75.76
2018-09-17T10:23:18.509Z,75.47
2018-09-17T10:24:28.101Z,75.66
2018-09-17T10:25:38.235Z,75.37
2018-09-17T10:26:48.093Z,75.66
2018-09-17T10:27:57.957Z,75.37
2018-09-17T10:29:08.086Z,75.37
2018-09-17T10:30:18.216Z,74.61
2018-09-17T10:31:28.368Z,74.46
2018-09-17T10:32:37.966Z,74.8
2018-09-17T10:33:48.105Z,74.9
2018-09-17T10:34:57.742Z,74.93
2018-09-17T10:36:07.343Z,74.74
2018-09-17T10:37:17.204Z,74.84
2018-09-17T10:38:27.062Z,75.22
2018-09-17T10:39:37.005Z,74.93
2018-09-17T10:40:46.902Z,73.88
2018-09-17T10:41:57.042Z,74.27
2018-09-17T10:43:06.916Z,74.84
2018-09-17T10:44:16.781Z,74.46
2018-09-17T10:45:26.921Z,74.46
2018-09-17T10:46:37.060Z,74.93
2018-09-17T10:47:46.930Z,74.93
2018-09-17T10:48:57.062Z,74.55
2018-09-17T10:50:06.371Z,73.98
2018-09-17T10:51:16.253Z,74.17
2018-09-17T10:52:26.112Z,72.26
2018-09-17T10:53:35.981Z,71.59
2018-09-17T10:54:45.564Z,71.02
2018-09-17T10:55:55.150Z,71.69
2018-09-17T10:57:05.006Z,71.59
2018-09-17T10:58:15.316Z,71.72
2018-09-17T10:59:25.177Z,72.2
2018-09-17T11:00:35.312Z,72.83
2018-09-17T11:01:45.456Z,72.49
2018-09-17T11:02:55.588Z,72.01
2018-09-17T11:04:05.729Z,72.39
2018-09-17T11:05:15.594Z,73.35
2018-09-17T11:06:25.179Z,72.87
2018-09-17T11:07:35.036Z,73.35
2018-09-17T11:08:44.944Z,72.87
2018-09-17T11:09:54.823Z,72.87
2018-09-17T11:11:04.961Z,72.39
2018-09-17T11:12:15.092Z,72.68
2018-09-17T11:13:24.951Z,72.49
2018-09-17T11:14:35.087Z,72.36
2018-09-17T11:15:44.674Z,72.83
2018-09-17T11:16:54.537Z,72.55
2018-09-17T11:18:04.123Z,73.41
2018-09-17T11:19:14.257Z,72.74
2018-09-17T11:20:24.398Z,74.17
2018-09-17T11:21:34.529Z,73.12
2018-09-17T11:22:44.121Z,72.45
2018-09-17T11:23:53.988Z,71.5
2018-09-17T11:25:04.192Z,71.98
2018-09-17T11:26:14.352Z,72.45
2018-09-17T11:27:24.535Z,72.45
2018-09-17T11:28:34.398Z,72.83
2018-09-17T11:29:44.260Z,73.79
2018-09-17T11:30:53.845Z,72.83
2018-09-17T11:32:03.432Z,72.45
2018-09-17T11:33:13.291Z,71.69
2018-09-17T11:34:23.423Z,73.03
2018-09-17T11:35:33.556Z,72.36
2018-09-17T11:36:43.693Z,71.98
2018-09-17T11:37:53.550Z,72.36
2018-09-17T11:39:03.687Z,72.55
2018-09-17T11:40:13.816Z,73.37
2018-09-17T11:41:23.404Z,73.22
2018-09-17T11:42:33.006Z,73.88
2018-09-17T11:43:43.140Z,73.79
2018-09-17T11:44:53.051Z,72.83
2018-09-17T11:46:03.190Z,73.12
2018-09-17T11:47:13.385Z,72.55
2018-09-17T11:48:23.676Z,72.74
2018-09-17T11:49:33.315Z,73.5
2018-09-17T11:50:43.222Z,72.55
2018-09-17T11:51:53.080Z,72.26
2018-09-17T11:53:03.221Z,72.55
2018-09-17T11:54:13.483Z,72.36
2018-09-17T11:55:23.613Z,71.59
2018-09-17T11:56:33.527Z,70.83
2018-09-17T11:57:43.117Z,70.73
2018-09-17T11:58:52.428Z,71.88
2018-09-17T12:00:01.735Z,72.26
2018-09-17T12:01:11.324Z,71.59
2018-09-17T12:02:21.310Z,72.07
2018-09-17T12:03:30.873Z,72.74
2018-09-17T12:04:41.009Z,72.64
2018-09-17T12:05:51.142Z,71.21
2018-09-17T12:07:01.276Z,72.36
2018-09-17T12:08:11.486Z,71.12
2018-09-17T12:09:21.752Z,70.92
2018-09-17T12:10:31.828Z,71.21
2018-09-17T12:11:41.411Z,70.45
2018-09-17T12:12:51.554Z,69.97
2018-09-17T12:14:01.467Z,69.59
2018-09-17T12:15:11.328Z,70.64
2018-09-17T12:16:21.463Z,71.12
2018-09-17T12:17:31.598Z,69.78
2018-09-17T12:18:41.184Z,69.78
2018-09-17T12:19:50.813Z,70.73
2018-09-17T12:21:00.946Z,70.07
2018-09-17T12:22:10.801Z,69.97
2018-09-17T12:23:20.386Z,69.78
2018-09-17T12:24:30.527Z,71.21
2018-09-17T12:25:40.471Z,70.83
2018-09-17T12:26:50.623Z,70.36
2018-09-17T12:28:00.247Z,70.36
2018-09-17T12:29:09.830Z,70.92
2018-09-17T12:30:19.415Z,70.83
2018-09-17T12:31:29.601Z,71.21
2018-09-17T12:32:39.468Z,71.06
2018-09-17T12:33:49.501Z,72.36
2018-09-17T12:35:00.174Z,72.36
2018-09-17T12:36:10.310Z,71.72
2018-09-17T12:37:20.498Z,71.82
2018-09-17T12:38:30.356Z,71.15
2018-09-17T12:39:40.221Z,72.01
2018-09-17T12:40:50.352Z,71.72
2018-09-17T12:41:59.936Z,71.15
2018-09-17T12:43:10.119Z,70.67
2018-09-17T12:44:20.260Z,69.72
2018-09-17T12:45:29.847Z,70.01
2018-09-17T12:46:39.433Z,69.62
2018-09-17T12:47:49.028Z,69.62
2018-09-17T12:48:58.673Z,69.95
2018-09-17T12:50:08.541Z,69.09
2018-09-17T12:51:18.676Z,68.9
2018-09-17T12:52:28.809Z,69.76
2018-09-17T12:53:38.951Z,69.37
2018-09-17T12:54:49.137Z,70.61
2018-09-17T12:55:59.057Z,69.66
2018-09-17T12:57:09.236Z,69.47
2018-09-17T12:58:19.627Z,69.76
2018-09-17T12:59:29.212Z,69.5
2018-09-17T13:00:39.399Z,70.04
2018-09-17T13:01:49.256Z,70.07
2018-09-17T13:02:59.393Z,69.41
2018-09-17T13:04:08.977Z,68.64
2018-09-17T13:05:18.845Z,69.79
2018-09-17T13:06:28.755Z,69.7
2018-09-17T13:07:38.905Z,69.7
2018-09-17T13:08:49.042Z,68.16
2018-09-17T13:09:59.182Z,69.02
2018-09-17T13:11:09.321Z,68.45
2018-09-17T13:12:19.234Z,68.26
2018-09-17T13:13:28.819Z,68.74
2018-09-17T13:14:38.752Z,67.53
2018-09-17T13:15:48.697Z,67.34
2018-09-17T13:16:58.578Z,67.14
2018-09-17T13:18:08.822Z,65.9
2018-09-17T13:19:18.969Z,65.42
2018-09-17T13:20:28.602Z,66.09
2018-09-17T13:21:38.742Z,65.33
2018-09-17T13:22:48.335Z,66.28
2018-09-17T13:23:58.242Z,66.38
2018-09-17T13:25:08.380Z,66.28
2018-09-17T13:26:18.241Z,66.76
2018-09-17T13:27:28.375Z,66.86
2018-09-17T13:28:38.513Z,65.71
2018-09-17T13:29:48.147Z,66.38
2018-09-17T13:30:58.295Z,65.61
2018-09-17T13:32:08.434Z,64.95
2018-09-17T13:33:18.438Z,64.69
2018-09-17T13:34:28.308Z,64.4
2018-09-17T13:35:38.225Z,64.31
2018-09-17T13:36:47.534Z,63.73
2018-09-17T13:37:57.402Z,64.88
2018-09-17T13:39:06.995Z,62.97
2018-09-17T13:40:17.145Z,62.11
2018-09-17T13:41:27.060Z,61.72
2018-09-17T13:42:37.495Z,62.01
2018-09-17T13:43:47.509Z,62.33
2018-09-17T13:44:57.710Z,62.01
2018-09-17T13:46:07.878Z,61.47
2018-09-17T13:47:17.847Z,62.14
2018-09-17T13:48:27.745Z,63.29
2018-09-17T13:49:37.697Z,62.14
2018-09-17T13:50:47.688Z,63.29
2018-09-17T13:51:57.602Z,61.85
2018-09-17T13:53:07.713Z,60.8
2018-09-17T13:54:17.387Z,61.47
2018-09-17T13:55:27.573Z,62.14
2018-09-17T13:56:37.777Z,61.18
2018-09-17T13:57:47.934Z,61.94
2018-09-17T13:58:57.603Z,62.9
2018-09-17T14:00:07.526Z,62.14
2018-09-17T14:01:17.153Z,63.1
2018-09-17T14:02:27.289Z,63
2018-09-17T14:03:37.506Z,62.04
2018-09-17T14:04:47.754Z,62.14
2018-09-17T14:05:57.934Z,62.9
2018-09-17T14:07:07.810Z,61.94
2018-09-17T14:08:17.669Z,61.08
2018-09-17T14:09:27.538Z,60.77
2018-09-17T14:10:37.730Z,60.77
2018-09-17T14:11:47.949Z,62.11
2018-09-17T14:12:57.901Z,61.82
2018-09-17T14:14:07.223Z,61.91
2018-09-17T14:15:17.432Z,61.54
2018-09-17T14:16:27.676Z,60.96
2018-09-17T14:17:37.306Z,61.63
2018-09-17T14:18:47.471Z,62.01
2018-09-17T14:19:57.361Z,62.01
2018-09-17T14:21:06.950Z,61.34
2018-09-17T14:22:17.172Z,61.72
2018-09-17T14:23:27.349Z,60.8
2018-09-17T14:24:37.239Z,60.89
2018-09-17T14:25:47.420Z,60.1
2018-09-17T14:26:57.396Z,60.29
2018-09-17T14:28:07.094Z,60.29
2018-09-17T14:29:16.991Z,60.77
2018-09-17T14:30:26.875Z,60.96
2018-09-17T14:31:37.015Z,61.54
2018-09-17T14:32:47.327Z,60.96
2018-09-17T14:33:57.983Z,62.49
2018-09-17T14:35:07.914Z,61.91
2018-09-17T14:36:18.267Z,61.15
2018-09-17T14:37:28.551Z,62.11
2018-09-17T14:38:38.736Z,62.97
2018-09-17T14:39:48.355Z,62.01
2018-09-17T14:40:58.337Z,62.11
2018-09-17T14:42:08.308Z,62.11
2018-09-17T14:43:18.187Z,61.82
2018-09-17T14:44:28.240Z,62.2
2018-09-17T14:45:38.179Z,62.97
2018-09-17T14:46:48.336Z,62.11
2018-09-17T14:47:58.210Z,62.59
2018-09-17T14:49:07.841Z,62.2
2018-09-17T14:50:18.063Z,63.93
2018-09-17T14:51:27.980Z,64.02
2018-09-17T14:52:38.207Z,63.83
2018-09-17T14:53:48.123Z,63.73
2018-09-17T14:54:58.512Z,63.06
2018-09-17T14:56:08.140Z,64.22
2018-09-17T14:57:18.088Z,64.12
2018-09-17T14:58:28.654Z,65.08
2018-09-17T14:59:38.640Z,64.12
2018-09-17T15:00:48.850Z,63.45
2018-09-17T15:01:58.709Z,63.54
2018-09-17T15:03:08.718Z,63.26